Terminal Aerodrome Forecast
Issued by NWS Wakefield, VA

Home | Current Version | Previous Version | Text Only | Print | Product List | Glossary On
Versions: 1 2 3 4 5 6 7 8 9 10 11 12 13 14 15 16 17
000
FTUS41 KAKQ 011738
TAFORF
TAF
KORF 011738Z 0118/0218 22022G35KT P6SM SCT040
     FM020000 21020G32KT 6SM -SHRA BKN070
      TEMPO 0200/0203 4SM TSRA OVC040CB
     FM020600 25015G24KT 6SM -SHRA OVC025
     FM020800 27016G25KT P6SM OVC050
     FM021300 29018G29KT P6SM SCT200=

USA.gov is the U.S. government's official web portal to all federal, state and local government web resources and services.